Time;durP1;ratioP1;P1;durP2;ratioP2;P2;SDS_P1;SDS_P2;PMS_P1;PMS_P2;Temp;Humidity;BMP_temperature;BMP_pressure;BME280_temperature;BME280_humidity;BME280_pressure;Samples;Min_cycle;Max_cycle;Signal;HPM_P1;HPM_P2
2023/06/08 00:02:03;;;;;;;13.60;13.10;;;19.60;99.90;;;;;;4912757;29;20462;-82
2023/06/08 00:04:32;;;;;;;13.90;13.40;;;19.60;99.90;;;;;;4915027;29;20457;-83
2023/06/08 00:07:08;;;;;;;13.17;12.67;;;19.50;99.90;;;;;;4912307;29;20453;-83
2023/06/08 00:09:37;;;;;;;13.77;13.27;;;19.60;99.90;;;;;;4912994;29;20449;-83
2023/06/08 00:12:05;;;;;;;13.43;12.97;;;19.60;99.90;;;;;;4914777;29;20472;-83
2023/06/08 00:14:34;;;;;;;13.77;13.33;;;19.60;99.90;;;;;;4913267;29;20465;-82
2023/06/08 00:17:03;;;;;;;14.10;13.60;;;19.50;99.90;;;;;;4909946;29;20485;-82
2023/06/08 00:19:31;;;;;;;13.83;13.37;;;19.50;99.90;;;;;;4910321;29;20821;-84
2023/06/08 00:22:04;;;;;;;14.27;13.77;;;19.50;99.90;;;;;;4909870;29;21050;-83
2023/06/08 00:24:34;;;;;;;14.80;14.30;;;19.40;99.90;;;;;;4909955;29;21026;-83
2023/06/08 00:27:03;;;;;;;13.50;13.00;;;19.50;99.90;;;;;;4909590;29;20465;-85
2023/06/08 00:29:32;;;;;;;14.00;13.40;;;19.50;99.90;;;;;;4909482;29;20465;-83
2023/06/08 00:32:00;;;;;;;14.00;13.50;;;19.50;99.90;;;;;;4909224;29;20836;-82
2023/06/08 00:34:28;;;;;;;13.40;12.90;;;19.50;99.90;;;;;;4908913;29;20497;-82
2023/06/08 00:36:56;;;;;;;14.27;13.67;;;19.50;99.90;;;;;;4908249;29;20477;-82
2023/06/08 00:39:24;;;;;;;13.03;12.63;;;19.40;99.90;;;;;;4910847;29;20481;-83
2023/06/08 00:41:54;;;;;;;13.97;13.47;;;19.30;99.90;;;;;;4910824;29;20544;-83
2023/06/08 00:44:22;;;;;;;14.40;13.80;;;19.40;99.90;;;;;;4909757;29;21078;-83
2023/06/08 00:46:50;;;;;;;13.23;12.73;;;19.40;99.90;;;;;;4906772;29;20569;-83
2023/06/08 00:49:20;;;;;;;14.03;13.47;;;19.40;99.90;;;;;;4908186;29;20478;-82
2023/06/08 00:51:48;;;;;;;14.30;13.80;;;19.40;99.90;;;;;;4908976;29;20492;-82
2023/06/08 00:54:17;;;;;;;13.93;13.33;;;19.30;99.90;;;;;;4910071;29;20480;-83
2023/06/08 00:56:48;;;;;;;14.60;14.00;;;19.30;99.90;;;;;;4908784;29;20478;-81
2023/06/08 00:59:19;;;;;;;14.20;13.67;;;19.30;99.90;;;;;;4908860;29;20442;-83
2023/06/08 01:01:47;;;;;;;14.83;14.20;;;19.30;99.90;;;;;;4910440;29;20477;-83
2023/06/08 01:04:16;;;;;;;14.60;14.00;;;19.30;99.90;;;;;;4910789;29;20988;-82
2023/06/08 01:06:53;;;;;;;14.80;14.10;;;19.30;99.90;;;;;;4909590;29;20492;-83
2023/06/08 01:09:30;;;;;;;14.57;13.97;;;19.20;99.90;;;;;;4910190;29;20537;-83
2023/06/08 01:12:11;;;;;;;15.10;14.47;;;19.20;99.90;;;;;;4907976;29;20465;-83
2023/06/08 01:14:50;;;;;;;14.70;14.20;;;19.20;99.90;;;;;;4907486;29;20461;-83
2023/06/08 01:17:24;;;;;;;14.70;14.20;;;19.00;99.90;;;;;;4909181;29;20589;-83
2023/06/08 01:20:24;;;;;;;14.77;14.17;;;19.00;99.90;;;;;;4909963;29;20505;-83
2023/06/08 01:23:07;;;;;;;14.93;14.23;;;18.90;99.90;;;;;;4923632;29;21035;-83
2023/06/08 01:25:39;;;;;;;14.37;13.77;;;18.80;99.90;;;;;;4909575;29;20844;-83
2023/06/08 01:28:13;;;;;;;13.93;13.43;;;18.80;99.90;;;;;;4910074;29;20490;-83
2023/06/08 01:30:43;;;;;;;14.40;13.90;;;18.80;99.90;;;;;;4912473;29;20466;-83
2023/06/08 01:33:14;;;;;;;14.60;14.10;;;18.70;99.90;;;;;;4912032;29;21103;-83
2023/06/08 01:35:43;;;;;;;13.83;13.40;;;18.70;99.90;;;;;;4911947;29;20484;-83
2023/06/08 01:38:18;;;;;;;14.07;13.67;;;18.70;99.90;;;;;;4910682;29;20525;-84
2023/06/08 01:40:54;;;;;;;13.90;13.50;;;18.60;99.90;;;;;;4911852;29;20445;-83
2023/06/08 01:43:23;;;;;;;14.20;13.70;;;18.50;99.90;;;;;;4912854;29;20452;-83
2023/06/08 01:45:57;;;;;;;13.87;13.40;;;18.50;99.90;;;;;;4913089;29;20476;-83
2023/06/08 01:48:29;;;;;;;13.53;13.13;;;18.50;99.90;;;;;;4911759;29;20795;-82
2023/06/08 01:50:59;;;;;;;14.17;13.67;;;18.50;99.90;;;;;;4912113;29;20465;-83
2023/06/08 01:53:27;;;;;;;14.00;13.40;;;18.50;99.90;;;;;;4911476;29;20451;-83
2023/06/08 01:55:57;;;;;;;14.80;14.10;;;18.40;99.90;;;;;;4928146;29;20496;-82
2023/06/08 01:58:25;;;;;;;16.60;15.47;;;18.40;99.90;;;;;;4911970;29;20486;-83
2023/06/08 02:00:53;;;;;;;14.03;13.60;;;18.40;99.90;;;;;;4911114;29;20465;-83
2023/06/08 02:03:21;;;;;;;14.93;14.33;;;18.30;99.90;;;;;;4912889;29;20469;-83
2023/06/08 02:05:49;;;;;;;14.83;14.23;;;18.40;99.90;;;;;;4911906;29;20482;-83
2023/06/08 02:08:17;;;;;;;14.67;14.17;;;18.40;99.90;;;;;;4912580;29;20465;-83
2023/06/08 02:10:45;;;;;;;14.87;14.20;;;18.40;99.90;;;;;;4911964;29;20457;-83
2023/06/08 02:13:15;;;;;;;14.90;14.20;;;18.50;99.90;;;;;;4912025;29;20476;-83
2023/06/08 02:15:43;;;;;;;15.37;14.77;;;18.50;99.90;;;;;;4914027;29;20498;-83
2023/06/08 02:18:14;;;;;;;14.73;13.97;;;18.50;99.90;;;;;;4915959;29;20953;-83
2023/06/08 02:20:42;;;;;;;15.20;14.63;;;18.30;99.90;;;;;;4913269;29;21126;-83
2023/06/08 02:23:11;;;;;;;15.57;14.97;;;18.30;99.90;;;;;;4914904;29;20469;-84
2023/06/08 02:25:39;;;;;;;15.33;14.73;;;18.20;99.90;;;;;;4914072;29;20572;-84
2023/06/08 02:28:07;;;;;;;15.30;14.70;;;18.20;99.90;;;;;;4914238;29;20505;-84
2023/06/08 02:30:36;;;;;;;15.93;15.23;;;18.20;99.90;;;;;;4912049;29;20791;-84
2023/06/08 02:33:06;;;;;;;15.30;14.80;;;18.20;99.90;;;;;;4912795;29;20560;-83
2023/06/08 02:35:34;;;;;;;16.23;15.53;;;18.20;99.90;;;;;;4913118;29;20489;-83
2023/06/08 02:38:03;;;;;;;15.30;14.80;;;18.20;99.90;;;;;;4911321;29;20501;-84
2023/06/08 02:40:31;;;;;;;14.63;14.23;;;18.20;99.90;;;;;;4911040;29;20442;-84
2023/06/08 02:42:59;;;;;;;15.40;14.80;;;18.20;99.90;;;;;;4913841;29;20469;-84
2023/06/08 02:45:27;;;;;;;15.80;15.10;;;18.00;99.90;;;;;;4913845;29;20473;-83
2023/06/08 02:47:57;;;;;;;16.07;15.47;;;18.00;99.90;;;;;;4913896;29;20492;-83
2023/06/08 02:50:25;;;;;;;16.40;15.60;;;18.00;99.90;;;;;;4913572;29;20468;-83
2023/06/08 02:52:54;;;;;;;16.03;15.43;;;18.00;99.90;;;;;;4912382;29;20469;-83
2023/06/08 02:55:23;;;;;;;15.07;14.57;;;18.10;99.90;;;;;;4911995;29;20470;-83
2023/06/08 02:57:52;;;;;;;15.43;14.93;;;18.10;99.90;;;;;;4912559;29;20488;-82
2023/06/08 03:00:21;;;;;;;15.50;14.80;;;18.00;99.90;;;;;;4913967;29;20457;-83
2023/06/08 03:02:49;;;;;;;14.97;14.43;;;17.90;99.90;;;;;;4913429;29;20454;-83
2023/06/08 03:05:21;;;;;;;14.80;14.27;;;17.90;99.90;;;;;;4914023;29;20497;-83
2023/06/08 03:07:49;;;;;;;15.57;14.67;;;17.80;99.90;;;;;;4914144;29;20545;-83
2023/06/08 03:10:17;;;;;;;15.13;14.40;;;17.70;99.90;;;;;;4913118;29;20462;-83
2023/06/08 03:12:45;;;;;;;15.90;15.20;;;17.70;99.90;;;;;;4913459;29;20964;-83
2023/06/08 03:15:22;;;;;;;14.53;13.87;;;17.70;99.90;;;;;;4913944;29;20564;-83
2023/06/08 03:17:51;;;;;;;14.50;13.97;;;17.70;99.90;;;;;;4910872;29;21161;-83
2023/06/08 03:20:21;;;;;;;15.50;14.60;;;17.80;99.90;;;;;;4911426;29;20465;-84
2023/06/08 03:22:49;;;;;;;15.47;14.77;;;17.70;99.90;;;;;;4908931;29;20469;-83
2023/06/08 03:25:21;;;;;;;14.83;14.30;;;17.70;99.90;;;;;;4910187;29;20482;-82
2023/06/08 03:27:49;;;;;;;14.97;14.40;;;17.60;99.90;;;;;;4909871;29;20490;-82
2023/06/08 03:30:17;;;;;;;14.43;13.97;;;17.70;99.90;;;;;;4909758;29;20466;-84
2023/06/08 03:32:48;;;;;;;15.23;14.67;;;17.70;99.90;;;;;;4907973;29;20466;-83
2023/06/08 03:35:17;;;;;;;14.90;14.40;;;17.70;99.90;;;;;;4909343;29;20482;-83
2023/06/08 03:37:47;;;;;;;15.10;14.50;;;17.80;99.90;;;;;;4908750;29;20457;-83
2023/06/08 03:40:15;;;;;;;15.20;14.50;;;17.70;99.90;;;;;;4908846;29;20569;-83
2023/06/08 03:42:43;;;;;;;14.83;14.33;;;17.70;99.90;;;;;;4909830;29;21035;-83
2023/06/08 03:45:11;;;;;;;15.30;14.60;;;17.70;99.90;;;;;;4911150;29;20477;-83
2023/06/08 03:47:40;;;;;;;14.60;14.10;;;17.70;99.90;;;;;;4910751;29;20466;-83
2023/06/08 03:50:08;;;;;;;15.13;14.57;;;17.70;99.90;;;;;;4911193;29;20460;-83
2023/06/08 03:52:38;;;;;;;14.97;14.43;;;17.70;99.90;;;;;;4907778;29;20520;-83
2023/06/08 03:55:11;;;;;;;15.07;14.37;;;17.70;99.90;;;;;;4909621;29;20492;-82
2023/06/08 03:57:40;;;;;;;15.37;14.77;;;17.80;99.90;;;;;;4909767;29;20875;-83
2023/06/08 04:00:11;;;;;;;14.50;13.80;;;17.80;99.90;;;;;;4907412;29;20573;-83
2023/06/08 04:02:39;;;;;;;15.20;14.57;;;17.80;99.90;;;;;;4909071;29;20465;-83
2023/06/08 04:05:08;;;;;;;15.33;14.73;;;17.70;99.90;;;;;;4909910;29;20492;-82
2023/06/08 04:07:36;;;;;;;15.33;14.63;;;17.70;99.90;;;;;;4910335;29;20458;-83
2023/06/08 04:10:07;;;;;;;14.40;13.77;;;17.80;99.90;;;;;;4908603;29;20615;-84
2023/06/08 04:12:35;;;;;;;14.70;14.20;;;17.80;99.90;;;;;;4910823;29;21055;-85
2023/06/08 04:15:04;;;;;;;15.23;14.63;;;17.80;99.90;;;;;;4908050;29;20857;-83
2023/06/08 04:17:33;;;;;;;14.60;14.10;;;17.70;99.90;;;;;;4908983;29;20592;-83
2023/06/08 04:20:01;;;;;;;15.30;14.60;;;17.70;99.90;;;;;;4908620;29;20979;-82
2023/06/08 04:22:29;;;;;;;16.57;15.60;;;17.80;99.90;;;;;;4925145;29;20472;-84
2023/06/08 04:24:57;;;;;;;15.03;14.53;;;17.80;99.90;;;;;;4908438;29;20483;-83
2023/06/08 04:27:27;;;;;;;15.37;14.80;;;17.80;99.90;;;;;;4910510;29;20465;-83
2023/06/08 04:29:55;;;;;;;15.27;14.77;;;17.90;99.90;;;;;;4909212;29;20445;-84
2023/06/08 04:32:23;;;;;;;15.93;15.23;;;17.90;99.90;;;;;;4905049;29;20495;-82
2023/06/08 04:34:52;;;;;;;15.30;14.67;;;18.00;99.90;;;;;;4908028;29;20482;-83
2023/06/08 04:37:20;;;;;;;15.63;14.77;;;18.00;99.90;;;;;;4909313;29;20454;-83
2023/06/08 04:39:49;;;;;;;15.27;14.67;;;18.10;99.90;;;;;;4907798;29;20493;-83
2023/06/08 04:42:19;;;;;;;16.07;14.90;;;18.10;99.90;;;;;;4910803;29;20463;-83
2023/06/08 04:44:50;;;;;;;14.70;14.20;;;18.00;99.90;;;;;;4910920;29;20485;-83
2023/06/08 04:47:18;;;;;;;14.30;13.80;;;18.00;99.90;;;;;;4908785;29;21051;-84
2023/06/08 04:49:47;;;;;;;15.10;14.50;;;18.10;99.90;;;;;;4908624;29;20469;-83
2023/06/08 04:52:16;;;;;;;15.17;14.53;;;18.20;99.90;;;;;;4910239;29;20461;-84
2023/06/08 04:54:46;;;;;;;15.07;14.33;;;18.20;99.90;;;;;;4908926;29;20943;-84
2023/06/08 04:57:15;;;;;;;15.47;14.87;;;18.20;99.90;;;;;;4909031;29;21201;-83
2023/06/08 04:59:43;;;;;;;17.03;16.23;;;18.30;99.90;;;;;;4908445;29;20499;-83
2023/06/08 05:02:12;;;;;;;15.10;14.50;;;18.30;99.90;;;;;;4908919;29;20472;-83
2023/06/08 05:04:42;;;;;;;14.60;14.10;;;18.30;99.90;;;;;;4908833;29;20462;-84
2023/06/08 05:07:10;;;;;;;14.73;14.20;;;18.30;99.90;;;;;;4909687;29;20455;-83
2023/06/08 05:09:38;;;;;;;14.70;14.20;;;18.40;99.90;;;;;;4908864;29;20545;-83
2023/06/08 05:12:10;;;;;;;14.50;14.10;;;18.40;99.90;;;;;;4907629;29;20548;-83
2023/06/08 05:14:38;;;;;;;15.07;14.57;;;18.50;99.90;;;;;;4908992;29;20465;-83
2023/06/08 05:17:08;;;;;;;15.10;14.57;;;18.60;99.90;;;;;;4908250;29;20887;-83
2023/06/08 05:19:38;;;;;;;14.87;14.37;;;18.70;99.90;;;;;;4908934;29;21032;-83
2023/06/08 05:22:06;;;;;;;15.00;14.50;;;18.70;99.90;;;;;;4909389;29;20468;-84
2023/06/08 05:24:35;;;;;;;15.33;14.83;;;18.70;99.90;;;;;;4909503;29;20453;-83
2023/06/08 05:27:03;;;;;;;15.23;14.73;;;18.70;99.90;;;;;;4908896;29;20463;-84
2023/06/08 05:29:31;;;;;;;15.20;14.70;;;18.70;99.90;;;;;;4908546;29;20453;-83
2023/06/08 05:32:00;;;;;;;14.80;14.30;;;18.70;99.90;;;;;;4909176;29;21169;-83
2023/06/08 05:34:28;;;;;;;15.43;14.93;;;18.80;99.90;;;;;;4902692;29;20462;-82
2023/06/08 05:36:58;;;;;;;15.27;14.77;;;18.90;99.90;;;;;;4909380;29;21058;-83
2023/06/08 05:39:26;;;;;;;15.10;14.60;;;19.00;99.90;;;;;;4909677;29;21333;-82
2023/06/08 05:41:54;;;;;;;15.40;14.80;;;19.00;99.90;;;;;;4910058;29;20462;-83
2023/06/08 05:44:22;;;;;;;14.80;14.20;;;19.10;99.90;;;;;;4907437;29;20509;-83
2023/06/08 05:46:50;;;;;;;15.20;14.60;;;19.10;99.90;;;;;;4907097;29;20485;-83
2023/06/08 05:49:18;;;;;;;14.63;14.10;;;19.20;99.90;;;;;;4907640;29;20468;-82
2023/06/08 05:51:47;;;;;;;15.00;14.50;;;19.30;99.90;;;;;;4907333;29;20469;-83
2023/06/08 05:54:16;;;;;;;14.57;14.10;;;19.40;99.90;;;;;;4908877;29;20446;-84
2023/06/08 05:56:44;;;;;;;15.27;14.57;;;19.50;99.90;;;;;;4909079;29;20537;-83
2023/06/08 05:59:12;;;;;;;15.03;14.33;;;19.30;99.90;;;;;;4907840;29;20549;-83
2023/06/08 06:01:40;;;;;;;13.93;13.57;;;19.40;99.90;;;;;;4907299;29;20448;-83
2023/06/08 06:04:08;;;;;;;14.33;13.93;;;19.40;99.90;;;;;;4908118;29;20777;-83
2023/06/08 06:06:56;;;;;;;14.50;13.90;;;19.50;99.90;;;;;;4907733;29;20465;-82
2023/06/08 06:09:26;;;;;;;14.97;14.47;;;19.70;99.90;;;;;;4908750;29;21000;-83
2023/06/08 06:11:54;;;;;;;15.17;14.70;;;19.90;99.90;;;;;;4906532;29;20456;-83
2023/06/08 06:14:22;;;;;;;15.07;14.57;;;19.90;99.90;;;;;;4909261;29;20461;-83
2023/06/08 06:16:50;;;;;;;15.90;15.30;;;19.90;99.90;;;;;;4911356;29;20496;-83
2023/06/08 06:19:36;;;;;;;14.83;14.33;;;19.80;99.90;;;;;;4911095;29;20991;-83
2023/06/08 06:22:06;;;;;;;14.97;14.47;;;19.80;99.90;;;;;;4910556;29;20485;-83
2023/06/08 06:24:36;;;;;;;13.73;13.23;;;19.80;99.90;;;;;;4911818;29;20521;-84
2023/06/08 06:27:05;;;;;;;13.63;13.13;;;19.90;99.90;;;;;;4909569;29;20476;-83
2023/06/08 06:29:33;;;;;;;13.40;12.80;;;19.90;99.90;;;;;;4907445;29;20458;-83
2023/06/08 06:32:01;;;;;;;13.50;13.10;;;20.00;99.90;;;;;;4911191;29;20469;-84
2023/06/08 06:34:30;;;;;;;13.57;13.07;;;20.00;99.90;;;;;;4911371;29;21066;-82
2023/06/08 06:36:58;;;;;;;13.47;13.07;;;20.20;99.90;;;;;;4910901;29;20454;-84
2023/06/08 06:39:26;;;;;;;14.30;13.80;;;20.20;99.90;;;;;;4911004;29;20508;-83
2023/06/08 06:41:56;;;;;;;14.63;14.13;;;20.30;99.90;;;;;;4911476;29;20490;-83
2023/06/08 06:44:24;;;;;;;14.10;13.63;;;20.20;99.90;;;;;;4912132;29;20964;-83
2023/06/08 06:46:52;;;;;;;15.40;14.80;;;20.30;99.90;;;;;;4909617;29;20478;-82
2023/06/08 06:49:20;;;;;;;15.93;15.17;;;20.40;99.90;;;;;;4911891;29;20546;-83
2023/06/08 06:51:48;;;;;;;14.93;14.33;;;20.40;99.90;;;;;;4908024;29;20472;-82
2023/06/08 06:54:17;;;;;;;16.00;15.30;;;20.50;99.90;;;;;;4911453;29;20453;-83
2023/06/08 06:56:45;;;;;;;14.70;14.10;;;20.50;99.90;;;;;;4911429;29;20545;-81
2023/06/08 06:59:15;;;;;;;15.07;14.50;;;20.60;99.90;;;;;;4909841;29;20461;-82
2023/06/08 07:01:43;;;;;;;14.20;13.60;;;20.60;99.90;;;;;;4912015;29;20470;-82
2023/06/08 07:04:14;;;;;;;14.57;14.03;;;20.70;99.90;;;;;;4912810;29;20461;-82
2023/06/08 07:06:43;;;;;;;14.10;13.60;;;20.80;99.90;;;;;;4911795;29;20511;-83
2023/06/08 07:09:11;;;;;;;15.13;14.43;;;20.90;99.90;;;;;;4910930;29;20468;-82
2023/06/08 07:11:39;;;;;;;15.27;14.67;;;21.00;99.90;;;;;;4907113;29;20804;-83
2023/06/08 07:14:07;;;;;;;13.80;13.40;;;21.10;99.90;;;;;;4910995;29;20474;-83
2023/06/08 07:16:37;;;;;;;14.43;14.03;;;21.20;99.90;;;;;;4909400;29;20495;-83
2023/06/08 07:19:05;;;;;;;14.67;14.17;;;21.20;99.90;;;;;;4910247;29;20533;-83
2023/06/08 07:21:38;;;;;;;14.80;14.27;;;21.30;99.90;;;;;;4912099;29;20490;-82
2023/06/08 07:24:21;;;;;;;14.50;14.00;;;21.50;99.90;;;;;;4910301;29;21142;-82
2023/06/08 07:27:10;;;;;;;13.90;13.40;;;21.50;99.90;;;;;;4910816;29;20464;-83
2023/06/08 07:29:39;;;;;;;13.93;13.50;;;21.50;99.90;;;;;;4911271;29;20463;-82
2023/06/08 07:32:11;;;;;;;13.47;13.07;;;21.40;99.90;;;;;;4911770;29;20469;-84
2023/06/08 07:34:39;;;;;;;13.63;13.13;;;21.50;99.90;;;;;;4910826;29;20564;-83
2023/06/08 07:37:07;;;;;;;14.80;14.20;;;21.60;99.90;;;;;;4911123;29;20480;-83
2023/06/08 07:39:35;;;;;;;14.70;14.20;;;21.70;99.90;;;;;;4907959;29;21115;-83
2023/06/08 07:42:04;;;;;;;15.67;15.00;;;21.70;99.90;;;;;;4908307;29;20488;-83
2023/06/08 07:44:32;;;;;;;16.37;15.60;;;21.80;99.90;;;;;;4908897;29;20473;-83
2023/06/08 07:47:00;;;;;;;16.03;15.43;;;21.90;99.90;;;;;;4908131;29;20446;-83
2023/06/08 07:49:30;;;;;;;16.07;15.43;;;21.90;99.90;;;;;;4910693;29;20468;-82
2023/06/08 07:51:59;;;;;;;16.27;15.67;;;21.90;99.90;;;;;;4910906;29;20500;-83
2023/06/08 07:54:27;;;;;;;16.53;15.93;;;21.90;99.90;;;;;;4910480;29;20508;-83
2023/06/08 07:56:55;;;;;;;16.77;16.07;;;22.00;99.90;;;;;;4911814;29;20485;-82
2023/06/08 07:59:23;;;;;;;17.10;16.40;;;22.00;99.90;;;;;;4910802;29;20465;-82
2023/06/08 08:01:51;;;;;;;16.03;15.43;;;22.10;99.90;;;;;;4911738;29;20545;-82
2023/06/08 08:04:19;;;;;;;16.10;15.60;;;22.10;99.90;;;;;;4912466;29;20481;-83
2023/06/08 08:06:49;;;;;;;15.70;15.10;;;22.10;99.90;;;;;;4911181;29;20553;-84
2023/06/08 08:09:17;;;;;;;16.33;15.73;;;22.20;99.90;;;;;;4914458;29;20514;-82
2023/06/08 08:11:45;;;;;;;15.97;15.37;;;22.20;99.90;;;;;;4914087;29;20484;-82
2023/06/08 08:14:13;;;;;;;16.60;16.00;;;22.30;99.90;;;;;;4912841;29;20465;-83
2023/06/08 08:16:41;;;;;;;15.80;15.20;;;22.30;99.90;;;;;;4912465;29;20497;-82
2023/06/08 08:19:10;;;;;;;15.60;15.10;;;22.40;99.90;;;;;;4910225;29;20473;-84
2023/06/08 08:21:38;;;;;;;15.40;14.70;;;22.40;99.90;;;;;;4912415;29;20478;-84
2023/06/08 08:24:08;;;;;;;15.30;14.70;;;22.40;99.90;;;;;;4912346;29;20967;-83
2023/06/08 08:26:38;;;;;;;15.10;14.60;;;22.50;99.90;;;;;;4911661;29;21023;-83
2023/06/08 08:29:06;;;;;;;15.70;15.10;;;22.50;99.90;;;;;;4910066;29;20454;-82
2023/06/08 08:31:34;;;;;;;15.77;15.13;;;22.50;99.90;;;;;;4910038;29;20555;-81
2023/06/08 08:34:02;;;;;;;16.03;15.37;;;22.50;99.90;;;;;;4910700;29;20489;-85
2023/06/08 08:36:30;;;;;;;15.20;14.43;;;22.70;99.90;;;;;;4910418;29;20489;-85
2023/06/08 08:38:58;;;;;;;16.27;15.67;;;22.70;99.90;;;;;;4909248;29;20461;-83
2023/06/08 08:41:29;;;;;;;15.47;14.97;;;22.80;99.90;;;;;;4910730;29;20474;-83
2023/06/08 08:44:01;;;;;;;15.87;15.17;;;22.80;99.90;;;;;;4910114;29;20446;-82
2023/06/08 08:46:33;;;;;;;17.00;16.40;;;22.90;99.90;;;;;;4909689;29;20477;-83
2023/06/08 08:49:05;;;;;;;16.27;15.67;;;22.90;99.90;;;;;;4909997;29;21024;-82
2023/06/08 08:51:38;;;;;;;16.90;16.30;;;23.00;99.90;;;;;;4910106;29;20453;-82
2023/06/08 08:54:09;;;;;;;16.70;16.00;;;23.00;99.90;;;;;;4910630;29;20577;-83
2023/06/08 08:56:39;;;;;;;18.20;17.20;;;23.00;99.90;;;;;;4911239;29;20477;-83
2023/06/08 08:59:08;;;;;;;17.30;16.70;;;23.00;99.90;;;;;;4910846;29;20592;-83
2023/06/08 09:01:39;;;;;;;17.57;16.93;;;23.10;99.90;;;;;;4908609;29;20493;-83
2023/06/08 09:04:08;;;;;;;17.20;16.60;;;23.10;99.90;;;;;;4909272;29;20561;-83
2023/06/08 09:06:36;;;;;;;17.33;16.60;;;23.30;99.90;;;;;;4910978;29;20466;-83
2023/06/08 09:09:06;;;;;;;18.47;17.77;;;23.30;99.90;;;;;;4910000;29;20547;-83
2023/06/08 09:11:35;;;;;;;17.87;17.17;;;23.40;99.90;;;;;;4909025;29;20454;-83
2023/06/08 09:14:09;;;;;;;16.67;16.17;;;23.40;99.90;;;;;;4910004;29;20868;-83
2023/06/08 09:16:42;;;;;;;16.90;16.10;;;23.50;99.90;;;;;;4910493;29;20470;-82
2023/06/08 09:19:11;;;;;;;17.30;16.60;;;23.50;99.90;;;;;;4925871;29;20470;-84
2023/06/08 09:21:43;;;;;;;16.97;16.37;;;23.50;99.90;;;;;;4910987;29;20588;-84
2023/06/08 09:24:12;;;;;;;16.93;16.33;;;23.60;99.90;;;;;;4909186;29;20461;-83
2023/06/08 09:26:47;;;;;;;17.20;16.60;;;23.70;99.90;;;;;;4909425;29;20576;-82
2023/06/08 09:32:12;;;;;;;17.47;16.87;;;23.70;99.90;;;;;;5117202;27;21126;-84
2023/06/08 09:34:50;;;;;;;16.80;16.10;;;24.00;99.90;;;;;;5118020;27;20588;-83
2023/06/08 09:37:20;;;;;;;17.17;16.57;;;24.00;99.90;;;;;;5110506;27;20473;-83
2023/06/08 09:39:48;;;;;;;16.93;16.00;;;24.10;99.90;;;;;;5116620;27;20440;-83
2023/06/08 09:42:17;;;;;;;17.87;17.07;;;24.00;99.90;;;;;;5117914;27;21007;-83
2023/06/08 09:44:45;;;;;;;16.30;15.70;;;24.00;99.90;;;;;;5117123;27;20441;-83
2023/06/08 09:47:22;;;;;;;16.27;15.67;;;24.10;99.90;;;;;;5112044;28;20453;-82
2023/06/08 09:49:51;;;;;;;16.33;15.73;;;24.20;99.90;;;;;;5118305;27;20453;-83
2023/06/08 09:52:21;;;;;;;15.87;15.37;;;24.20;99.90;;;;;;5115814;27;20454;-83
2023/06/08 09:54:50;;;;;;;15.50;15.00;;;24.30;99.90;;;;;;5115618;27;20452;-82
2023/06/08 09:57:20;;;;;;;15.60;15.10;;;24.40;99.90;;;;;;5116936;27;20456;-84
2023/06/08 09:59:54;;;;;;;16.03;15.50;;;24.40;99.90;;;;;;5118179;27;20452;-84
2023/06/08 10:02:30;;;;;;;16.17;15.60;;;24.50;99.90;;;;;;5116432;27;20504;-84
2023/06/08 10:05:03;;;;;;;15.97;15.37;;;24.50;99.90;;;;;;5115919;27;20505;-83
2023/06/08 10:07:36;;;;;;;16.83;16.13;;;24.50;99.90;;;;;;5115515;27;20452;-82
2023/06/08 10:10:11;;;;;;;15.77;15.27;;;24.50;99.90;;;;;;5118333;27;20443;-83
2023/06/08 10:12:39;;;;;;;17.10;16.40;;;24.50;99.90;;;;;;5117060;27;20441;-83
2023/06/08 10:15:09;;;;;;;15.73;15.23;;;24.50;99.90;;;;;;5115287;27;20836;-82
2023/06/08 10:17:39;;;;;;;15.23;14.73;;;24.50;99.90;;;;;;5111308;27;20455;-82
2023/06/08 10:20:08;;;;;;;14.97;14.47;;;24.50;99.90;;;;;;5115311;27;20524;-82
2023/06/08 10:22:39;;;;;;;16.23;15.53;;;24.50;99.90;;;;;;5118230;27;20539;-83
2023/06/08 10:25:11;;;;;;;16.50;15.80;;;24.50;99.90;;;;;;5114261;27;20526;-83
2023/06/08 10:27:47;;;;;;;16.03;15.43;;;24.50;99.90;;;;;;5114920;27;20528;-83
2023/06/08 10:30:28;;;;;;;15.93;15.30;;;24.50;99.90;;;;;;5112477;27;20451;-82
2023/06/08 10:33:08;;;;;;;16.60;15.63;;;24.50;99.90;;;;;;5115239;27;20868;-83
2023/06/08 10:35:37;;;;;;;15.43;14.93;;;24.60;99.90;;;;;;5114694;27;20536;-83
2023/06/08 10:38:12;;;;;;;15.83;15.20;;;24.50;99.90;;;;;;5113477;27;20461;-82
2023/06/08 10:40:45;;;;;;;15.33;14.53;;;24.50;99.90;;;;;;5112418;27;20444;-83
2023/06/08 10:43:13;;;;;;;15.50;14.90;;;24.60;99.90;;;;;;5098673;27;20467;-83
2023/06/08 10:45:48;;;;;;;16.03;15.43;;;24.60;99.90;;;;;;5108586;28;21117;-83
2023/06/08 10:48:19;;;;;;;16.10;15.50;;;24.60;99.90;;;;;;5100448;28;20448;-83
2023/06/08 10:50:50;;;;;;;15.73;15.07;;;24.70;99.90;;;;;;5102312;27;20970;-83
2023/06/08 10:53:19;;;;;;;15.67;15.10;;;24.70;99.90;;;;;;5098391;28;20453;-83
2023/06/08 10:55:48;;;;;;;16.40;15.80;;;24.80;99.90;;;;;;5101766;28;20464;-83
2023/06/08 10:58:18;;;;;;;14.90;14.40;;;24.80;99.90;;;;;;5100671;27;20890;-83
2023/06/08 11:00:50;;;;;;;16.90;16.03;;;24.80;99.90;;;;;;5099470;27;20531;-83
2023/06/08 11:03:21;;;;;;;15.10;14.60;;;24.90;99.90;;;;;;5099926;28;20515;-83
2023/06/08 11:05:53;;;;;;;15.20;14.50;;;25.00;99.90;;;;;;5102527;28;20473;-84
2023/06/08 11:08:22;;;;;;;15.10;14.30;;;25.10;99.90;;;;;;5100428;27;21123;-84
2023/06/08 11:10:54;;;;;;;15.83;15.23;;;25.20;99.90;;;;;;5102344;27;20445;-83
2023/06/08 11:13:23;;;;;;;16.20;15.60;;;25.10;99.90;;;;;;5102055;27;20468;-83
2023/06/08 11:15:51;;;;;;;15.20;14.70;;;25.10;99.90;;;;;;5100481;27;20535;-83
2023/06/08 11:18:21;;;;;;;14.73;14.23;;;25.10;99.90;;;;;;5098182;28;21043;-83
2023/06/08 11:20:49;;;;;;;14.47;13.77;;;25.10;99.90;;;;;;5099477;27;20888;-83
2023/06/08 11:23:17;;;;;;;14.70;14.20;;;25.10;99.90;;;;;;5098931;28;20462;-82
2023/06/08 11:25:47;;;;;;;15.57;14.97;;;25.20;99.90;;;;;;5100925;28;20600;-83
2023/06/08 11:28:15;;;;;;;14.03;13.53;;;25.20;99.90;;;;;;5097686;27;20489;-81
2023/06/08 11:30:43;;;;;;;15.20;14.60;;;25.20;99.90;;;;;;5099120;28;20490;-83
2023/06/08 11:33:14;;;;;;;15.37;14.77;;;25.20;99.90;;;;;;5101916;28;20851;-83
2023/06/08 11:35:44;;;;;;;14.37;13.87;;;25.10;99.90;;;;;;5100942;27;20488;-82
2023/06/08 11:38:12;;;;;;;14.67;14.10;;;25.20;99.90;;;;;;5099885;27;20450;-84
2023/06/08 11:40:42;;;;;;;14.80;14.10;;;25.20;99.90;;;;;;5102922;27;20457;-83
2023/06/08 11:43:12;;;;;;;15.37;14.67;;;25.10;99.90;;;;;;5103013;28;20457;-83
2023/06/08 11:45:40;;;;;;;14.20;13.70;;;25.00;99.90;;;;;;5100685;28;20484;-84
2023/06/08 11:48:08;;;;;;;14.10;13.60;;;24.90;99.90;;;;;;5098329;27;20459;-83
2023/06/08 11:50:47;;;;;;;13.87;13.37;;;24.80;99.90;;;;;;5099359;27;20467;-83
2023/06/08 11:53:22;;;;;;;14.03;13.50;;;24.80;99.90;;;;;;5098839;28;20550;-83
2023/06/08 11:55:52;;;;;;;14.03;13.43;;;24.70;99.90;;;;;;5100003;27;20474;-84
2023/06/08 11:58:25;;;;;;;13.80;13.30;;;24.60;99.90;;;;;;5097337;28;20449;-83
2023/06/08 12:01:05;;;;;;;12.80;12.40;;;24.50;99.90;;;;;;5098623;27;20465;-84
2023/06/08 12:03:34;;;;;;;13.00;12.50;;;24.40;99.90;;;;;;5096656;27;20449;-83
2023/06/08 12:06:04;;;;;;;14.03;13.47;;;24.40;99.90;;;;;;5099288;27;20477;-83
2023/06/08 12:08:34;;;;;;;14.80;13.93;;;24.20;99.90;;;;;;5095541;27;20499;-83
2023/06/08 12:11:08;;;;;;;14.97;14.37;;;24.10;99.90;;;;;;5096938;28;20448;-84
2023/06/08 12:13:39;;;;;;;16.00;15.10;;;23.90;99.90;;;;;;5099471;27;20460;-83
2023/06/08 12:16:09;;;;;;;17.17;16.13;;;23.80;99.90;;;;;;5100517;27;20470;-84
2023/06/08 12:18:38;;;;;;;16.43;15.70;;;23.70;99.90;;;;;;5101399;28;20458;-83
2023/06/08 12:21:09;;;;;;;17.27;16.27;;;23.60;99.90;;;;;;5095371;27;20456;-83
2023/06/08 12:23:38;;;;;;;17.73;16.90;;;23.50;99.90;;;;;;5099378;28;20703;-82
2023/06/08 12:26:06;;;;;;;18.93;17.80;;;23.30;99.90;;;;;;5098431;28;20474;-82
2023/06/08 12:28:34;;;;;;;16.70;15.60;;;23.20;99.90;;;;;;5096104;28;20450;-83
2023/06/08 12:31:03;;;;;;;16.03;15.33;;;23.10;99.90;;;;;;5098984;27;20464;-84
2023/06/08 12:33:32;;;;;;;17.97;16.60;;;23.10;99.90;;;;;;5096644;28;20630;-83
2023/06/08 12:36:00;;;;;;;18.43;17.43;;;23.00;99.90;;;;;;5097643;27;20474;-82
2023/06/08 12:38:31;;;;;;;19.10;17.97;;;22.90;99.90;;;;;;5098509;28;20848;-82
2023/06/08 12:40:59;;;;;;;18.53;17.70;;;22.70;99.90;;;;;;5097194;28;20973;-83
2023/06/08 12:43:27;;;;;;;17.77;17.07;;;22.60;99.90;;;;;;5095458;28;21168;-83
2023/06/08 12:45:56;;;;;;;19.40;18.30;;;22.50;99.90;;;;;;5098628;27;20476;-83